Time;durP1;ratioP1;P1;durP2;ratioP2;P2;SDS_P1;SDS_P2;PMS_P1;PMS_P2;Temp;Humidity;BMP_temperature;BMP_pressure;BME280_temperature;BME280_humidity;BME280_pressure;Samples;Min_cycle;Max_cycle;Signal;HPM_P1;HPM_P2
2023/08/04 00:00:54;;;;;;;3.50;1.67;;;;;;;20.11;100.00;95660.91;5052052;28;20051;-77
2023/08/04 00:03:19;;;;;;;4.67;1.00;;;;;;;20.11;100.00;95660.09;5064010;28;20021;-78
2023/08/04 00:05:45;;;;;;;3.73;0.90;;;;;;;20.11;100.00;95654.75;5057978;28;20028;-78
2023/08/04 00:08:10;;;;;;;5.23;1.40;;;;;;;20.21;100.00;95649.63;5049214;28;20035;-77
2023/08/04 00:10:36;;;;;;;4.03;0.93;;;;;;;20.15;100.00;95645.22;5051201;28;20029;-77
2023/08/04 00:13:01;;;;;;;1.63;0.70;;;;;;;20.31;100.00;95657.06;5058962;28;20907;-77
2023/08/04 00:15:31;;;;;;;3.87;1.27;;;;;;;20.36;100.00;95652.66;5070370;28;20021;-77
2023/08/04 00:17:57;;;;;;;4.03;1.23;;;;;;;20.33;100.00;95655.78;5055314;28;20074;-77
2023/08/04 00:20:22;;;;;;;2.37;0.80;;;;;;;19.97;100.00;95654.97;5051253;28;20058;-77
2023/08/04 00:22:48;;;;;;;5.20;1.57;;;;;;;20.32;100.00;95664.84;5066500;28;20020;-77
2023/08/04 00:25:13;;;;;;;1.87;0.90;;;;;;;20.29;100.00;95662.66;5055163;28;20024;-77
2023/08/04 00:27:39;;;;;;;4.50;1.10;;;;;;;20.05;100.00;95677.03;5071076;28;20025;-77
2023/08/04 00:30:06;;;;;;;1.93;0.80;;;;;;;20.04;100.00;95686.91;5065761;28;20021;-77
2023/08/04 00:32:31;;;;;;;6.27;1.03;;;;;;;19.96;100.00;95687.25;5054286;28;20021;-78
2023/08/04 00:34:57;;;;;;;2.60;1.00;;;;;;;19.68;100.00;95687.91;5054089;28;20016;-77
2023/08/04 00:37:23;;;;;;;2.23;0.90;;;;;;;19.43;100.00;95683.53;5063848;28;20470;-77
2023/08/04 00:39:50;;;;;;;7.10;1.40;;;;;;;19.17;100.00;95684.72;5039062;28;20021;-77
2023/08/04 00:42:21;;;;;;;2.60;1.20;;;;;;;19.44;100.00;95692.34;5063571;28;20025;-77
2023/08/04 00:44:47;;;;;;;5.00;1.50;;;;;;;19.71;100.00;95690.91;5048670;28;20394;-77
2023/08/04 00:47:12;;;;;;;3.07;1.03;;;;;;;19.27;100.00;95690.31;5054026;28;20025;-77
2023/08/04 00:49:39;;;;;;;1.97;0.97;;;;;;;18.92;100.00;95684.88;5070773;28;20031;-77
2023/08/04 00:52:05;;;;;;;3.80;1.03;;;;;;;19.18;100.00;95680.22;5071035;28;20482;-77
2023/08/04 00:54:33;;;;;;;3.93;1.03;;;;;;;19.25;100.00;95681.75;5050431;28;20062;-77
2023/08/04 00:56:59;;;;;;;3.03;1.47;;;;;;;19.24;100.00;95679.31;5053856;28;20489;-77
2023/08/04 00:59:25;;;;;;;5.63;1.60;;;;;;;19.07;100.00;95679.94;5050356;28;20025;-77
2023/08/04 01:01:50;;;;;;;3.20;1.20;;;;;;;18.92;100.00;95690.19;5069970;28;20020;-77
2023/08/04 01:04:20;;;;;;;4.33;1.20;;;;;;;18.81;100.00;95682.94;5044142;28;20032;-77
2023/08/04 01:07:07;;;;;;;3.17;1.20;;;;;;;18.92;100.00;95690.19;5064699;28;20491;-77
2023/08/04 01:13:06;;;;;;;4.85;1.08;;;;;;;18.69;100.00;95687.38;5067183;28;20054;-78
2023/08/04 01:15:33;;;;;;;3.97;1.37;;;;;;;18.72;100.00;95687.78;5061143;28;20029;-77
2023/08/04 01:17:59;;;;;;;4.60;1.00;;;;;;;18.66;100.00;95685.97;5043271;28;20075;-77
2023/08/04 01:20:26;;;;;;;2.33;0.80;;;;;;;18.74;100.00;95687.53;5053630;28;20017;-77
2023/08/04 01:23:04;;;;;;;2.10;0.87;;;;;;;18.55;100.00;95692.88;5065216;28;20115;-77
2023/08/04 01:25:35;;;;;;;3.37;1.00;;;;;;;18.51;100.00;95688.19;5067383;28;20150;-77
2023/08/04 01:28:09;;;;;;;3.83;1.30;;;;;;;18.63;100.00;95691.75;5064623;28;20024;-77
2023/08/04 01:30:36;;;;;;;2.50;1.10;;;;;;;18.48;100.00;95700.13;5051420;28;20016;-77
2023/08/04 01:33:02;;;;;;;3.77;1.17;;;;;;;18.56;100.00;95697.16;5050924;28;20021;-77
2023/08/04 01:35:29;;;;;;;1.43;0.80;;;;;;;18.65;100.00;95702.19;5059909;28;20398;-77
2023/08/04 01:37:55;;;;;;;3.30;1.03;;;;;;;18.52;100.00;95700.50;5074542;28;20021;-77
2023/08/04 01:40:20;;;;;;;2.77;0.93;;;;;;;18.71;100.00;95694.13;5068365;28;20020;-77
2023/08/04 01:42:46;;;;;;;3.23;0.93;;;;;;;18.71;100.00;95685.28;5059231;28;20382;-77
2023/08/04 01:45:12;;;;;;;2.40;1.00;;;;;;;18.69;100.00;95688.19;5038832;28;20119;-77
2023/08/04 01:47:38;;;;;;;3.03;0.80;;;;;;;18.53;100.00;95684.28;5054182;28;20721;-77
2023/08/04 01:50:07;;;;;;;2.73;1.03;;;;;;;18.77;100.00;95687.09;5054980;28;20448;-77
2023/08/04 01:52:34;;;;;;;3.93;1.00;;;;;;;18.62;100.00;95684.81;5070571;28;20022;-77
2023/08/04 01:54:59;;;;;;;1.83;0.73;;;;;;;18.70;100.00;95683.69;5065002;28;20037;-77
2023/08/04 01:57:25;;;;;;;1.87;0.80;;;;;;;18.63;100.00;95688.28;5053986;28;20017;-77
2023/08/04 01:59:53;;;;;;;3.53;1.30;;;;;;;18.56;100.00;95688.34;5056961;28;20013;-77
2023/08/04 02:02:18;;;;;;;2.33;0.90;;;;;;;18.49;100.00;95683.09;5074026;28;20028;-77
2023/08/04 02:04:44;;;;;;;2.87;1.03;;;;;;;18.61;100.00;95683.16;5056702;28;20028;-77
2023/08/04 02:07:15;;;;;;;3.27;1.03;;;;;;;18.70;100.00;95681.00;5056238;28;20046;-77
2023/08/04 02:09:42;;;;;;;3.23;1.07;;;;;;;18.50;100.00;95691.91;5061392;28;20016;-77
2023/08/04 02:12:08;;;;;;;3.23;1.00;;;;;;;18.44;100.00;95682.94;5055192;28;20074;-77
2023/08/04 02:14:36;;;;;;;4.50;1.10;;;;;;;18.38;100.00;95673.19;5065985;28;20025;-77
2023/08/04 02:17:02;;;;;;;3.53;1.00;;;;;;;18.71;100.00;95661.31;5055465;28;20528;-77
2023/08/04 02:19:28;;;;;;;2.93;1.63;;;;;;;19.10;100.00;95661.88;5072806;28;20024;-77
2023/08/04 02:21:53;;;;;;;4.23;1.10;;;;;;;19.14;100.00;95663.03;5074237;28;20777;-77
2023/08/04 02:24:19;;;;;;;4.90;1.13;;;;;;;19.15;100.00;95656.66;5074744;28;20043;-77
2023/08/04 02:26:45;;;;;;;2.10;0.93;;;;;;;19.26;100.00;95656.72;5073359;28;20116;-77
2023/08/04 02:29:12;;;;;;;3.10;0.87;;;;;;;19.26;100.00;95659.38;5073322;28;20478;-77
2023/08/04 02:31:38;;;;;;;2.40;0.77;;;;;;;18.91;100.00;95671.75;5068927;28;20044;-78
2023/08/04 02:34:03;;;;;;;3.17;0.90;;;;;;;19.01;100.00;95672.03;5060260;28;20063;-77
2023/08/04 02:36:29;;;;;;;2.97;0.80;;;;;;;18.48;100.00;95678.81;5073335;28;20505;-78
2023/08/04 02:38:56;;;;;;;3.97;1.07;;;;;;;18.67;100.00;95684.94;5056492;28;20024;-77
2023/08/04 02:41:22;;;;;;;2.73;1.27;;;;;;;18.78;100.00;95688.75;5056948;28;20029;-77
2023/08/04 02:43:47;;;;;;;3.83;1.20;;;;;;;18.79;100.00;95688.50;5073283;28;20016;-77
2023/08/04 02:46:13;;;;;;;4.50;1.20;;;;;;;19.02;100.00;95697.66;5064729;28;20403;-77
2023/08/04 02:48:39;;;;;;;4.30;1.10;;;;;;;18.89;100.00;95693.31;5052445;28;20021;-77
2023/08/04 02:51:10;;;;;;;4.07;0.90;;;;;;;19.04;100.00;95685.72;5050934;28;20031;-77
2023/08/04 02:53:39;;;;;;;2.13;1.17;;;;;;;18.92;100.00;95679.53;5056272;28;20103;-77
2023/08/04 02:56:15;;;;;;;3.00;1.13;;;;;;;18.92;100.00;95678.72;5055374;28;20115;-77
2023/08/04 02:58:43;;;;;;;3.13;1.40;;;;;;;18.86;100.00;95672.44;5052770;28;20040;-77
2023/08/04 03:01:22;;;;;;;1.30;0.63;;;;;;;19.03;100.00;95685.94;5053958;28;20126;-76
2023/08/04 03:03:48;;;;;;;3.77;1.00;;;;;;;18.74;100.00;95684.88;5071058;28;20044;-77
2023/08/04 03:06:13;;;;;;;4.30;1.07;;;;;;;18.99;100.00;95690.94;5069768;28;20031;-77
2023/08/04 03:08:39;;;;;;;3.60;1.00;;;;;;;18.86;100.00;95687.63;5064921;28;20020;-77
2023/08/04 03:11:12;;;;;;;2.67;0.90;;;;;;;18.75;100.00;95691.84;5053920;28;20025;-77
2023/08/04 03:13:38;;;;;;;3.13;1.13;;;;;;;18.70;100.00;95687.16;5066312;28;20025;-77
2023/08/04 03:16:05;;;;;;;3.10;1.03;;;;;;;18.73;100.00;95685.94;5061707;28;20078;-77
2023/08/04 03:18:30;;;;;;;2.20;0.90;;;;;;;18.76;100.00;95685.47;5073031;28;20490;-76
2023/08/04 03:20:59;;;;;;;1.67;1.00;;;;;;;18.88;100.00;95691.69;5058228;28;20020;-77
2023/08/04 03:23:25;;;;;;;3.20;0.90;;;;;;;18.60;100.00;95681.53;5043805;28;20033;-77
2023/08/04 03:25:51;;;;;;;7.03;2.13;;;;;;;18.65;100.00;95684.34;5072979;28;20448;-77
2023/08/04 03:28:16;;;;;;;3.60;1.13;;;;;;;18.48;100.00;95681.47;5071999;28;20063;-77
2023/08/04 03:30:42;;;;;;;3.57;0.90;;;;;;;18.55;100.00;95678.75;5062264;28;20036;-77
2023/08/04 03:33:08;;;;;;;3.83;1.13;;;;;;;18.67;100.00;95673.47;5059236;28;20017;-77
2023/08/04 03:35:33;;;;;;;2.90;1.00;;;;;;;18.58;100.00;95676.44;5072540;28;20525;-77
2023/08/04 03:37:59;;;;;;;4.07;1.10;;;;;;;18.45;100.00;95678.44;5072250;28;20031;-77
2023/08/04 03:40:24;;;;;;;1.87;1.00;;;;;;;18.27;100.00;95681.91;5051685;28;20532;-77
2023/08/04 03:42:50;;;;;;;4.50;1.10;;;;;;;18.39;100.00;95680.13;5060746;28;20056;-77
2023/08/04 03:45:16;;;;;;;4.53;1.13;;;;;;;18.37;100.00;95693.66;5053403;28;20119;-77
2023/08/04 03:47:41;;;;;;;3.67;1.03;;;;;;;18.29;100.00;95693.16;5073514;28;20094;-77
2023/08/04 03:50:07;;;;;;;3.43;1.10;;;;;;;18.33;100.00;95697.00;5065264;28;20048;-77
2023/08/04 03:52:33;;;;;;;3.27;1.07;;;;;;;18.31;100.00;95704.41;5072106;28;20020;-77
2023/08/04 03:54:59;;;;;;;3.83;1.10;;;;;;;18.40;100.00;95703.06;5071769;28;20017;-77
2023/08/04 03:57:24;;;;;;;5.53;1.47;;;;;;;18.23;100.00;95696.69;5071854;28;20024;-77
2023/08/04 03:59:52;;;;;;;19.47;8.30;;;;;;;18.15;100.00;95695.13;5061800;28;20490;-77
2023/08/04 04:02:18;;;;;;;19.27;8.10;;;;;;;18.13;100.00;95700.66;5071795;28;20469;-77
2023/08/04 04:04:43;;;;;;;10.43;3.60;;;;;;;18.04;100.00;95709.13;5046589;28;20074;-77
2023/08/04 04:07:09;;;;;;;9.03;2.57;;;;;;;18.35;100.00;95713.56;5048781;28;20020;-77
2023/08/04 04:09:34;;;;;;;5.70;1.70;;;;;;;18.17;100.00;95713.53;5069192;28;20498;-77
2023/08/04 04:12:00;;;;;;;5.70;1.43;;;;;;;18.36;100.00;95712.53;5071771;28;20024;-77
2023/08/04 04:14:25;;;;;;;4.20;1.20;;;;;;;18.49;100.00;95712.38;5072063;28;20089;-77
2023/08/04 04:16:51;;;;;;;3.27;1.20;;;;;;;18.54;100.00;95714.38;5055330;28;20021;-77
2023/08/04 04:19:16;;;;;;;3.03;1.17;;;;;;;18.56;100.00;95715.78;5054205;28;20024;-77
2023/08/04 04:21:42;;;;;;;4.70;1.20;;;;;;;18.79;100.00;95701.84;5071710;28;20021;-77
2023/08/04 04:24:08;;;;;;;4.23;1.37;;;;;;;18.64;100.00;95706.69;5071728;28;20024;-76
2023/08/04 04:26:33;;;;;;;2.80;0.97;;;;;;;19.13;100.00;95718.22;5071776;28;20385;-77
2023/08/04 04:28:59;;;;;;;7.80;1.57;;;;;;;19.14;100.00;95716.34;5059903;28;20016;-77
2023/08/04 04:31:24;;;;;;;16.43;4.37;;;;;;;19.01;100.00;95712.84;5054849;28;20385;-77
2023/08/04 04:33:50;;;;;;;8.03;2.80;;;;;;;19.05;100.00;95706.03;5055683;28;20016;-77
2023/08/04 04:36:15;;;;;;;3.80;1.97;;;;;;;19.10;100.00;95707.19;5073510;28;20031;-77
2023/08/04 04:38:42;;;;;;;6.00;1.63;;;;;;;18.66;100.00;95704.63;5071772;28;20383;-77
2023/08/04 04:41:07;;;;;;;5.47;1.67;;;;;;;18.82;100.00;95705.91;5067489;28;20390;-77
2023/08/04 04:43:34;;;;;;;5.30;1.53;;;;;;;18.54;100.00;95706.38;5070544;28;20020;-77
2023/08/04 04:46:15;;;;;;;5.33;2.03;;;;;;;18.73;100.00;95708.03;5050789;28;20029;-78
2023/08/04 04:48:41;;;;;;;4.53;1.33;;;;;;;18.72;100.00;95716.28;5048175;28;20028;-79
2023/08/04 04:51:07;;;;;;;4.83;0.97;;;;;;;18.91;100.00;95714.38;5058049;28;20032;-78
2023/08/04 04:53:32;;;;;;;2.83;1.13;;;;;;;18.95;100.00;95716.41;5060920;28;20482;-78
2023/08/04 04:55:58;;;;;;;4.43;1.63;;;;;;;19.13;100.00;95720.88;5070341;28;20470;-79
2023/08/04 04:58:23;;;;;;;3.00;1.00;;;;;;;19.42;100.00;95716.59;5051850;28;20720;-79
2023/08/04 05:00:49;;;;;;;5.73;1.40;;;;;;;19.22;100.00;95716.88;5067222;28;20444;-78
2023/08/04 05:03:14;;;;;;;3.27;1.10;;;;;;;19.30;100.00;95713.88;5054421;28;20033;-76
2023/08/04 05:05:43;;;;;;;3.37;1.00;;;;;;;19.22;100.00;95716.06;5068420;28;20030;-76
2023/08/04 05:08:08;;;;;;;2.83;1.00;;;;;;;19.44;100.00;95722.50;5068483;28;20025;-76
2023/08/04 05:10:34;;;;;;;6.30;1.33;;;;;;;19.43;100.00;95715.53;5070732;28;20063;-76
2023/08/04 05:13:02;;;;;;;5.57;1.20;;;;;;;19.67;100.00;95710.28;5071934;28;20597;-76
2023/08/04 05:15:27;;;;;;;6.77;1.57;;;;;;;19.71;100.00;95716.78;5065848;28;20546;-78
2023/08/04 05:17:53;;;;;;;1.93;0.80;;;;;;;19.79;100.00;95719.16;5071351;28;20024;-77
2023/08/04 05:20:18;;;;;;;3.60;1.20;;;;;;;19.40;100.00;95721.31;5057748;28;20027;-77
2023/08/04 05:22:44;;;;;;;3.57;0.90;;;;;;;19.46;100.00;95717.75;5065680;28;20029;-77
2023/08/04 05:25:09;;;;;;;2.87;0.80;;;;;;;19.84;100.00;95721.91;5073534;28;20379;-77
2023/08/04 05:28:13;;;;;;;4.43;1.10;;;;;;;19.73;100.00;95715.53;5056483;28;20493;-76
2023/08/04 05:30:42;;;;;;;3.70;0.90;;;;;;;19.54;100.00;95716.59;5074336;28;20115;-77
2023/08/04 05:33:09;;;;;;;5.27;1.20;;;;;;;20.06;100.00;95710.69;5054366;28;20025;-76
2023/08/04 05:35:37;;;;;;;2.67;1.10;;;;;;;20.10;100.00;95712.66;5073493;28;20017;-77
2023/08/04 05:38:03;;;;;;;6.97;1.20;;;;;;;20.09;100.00;95715.59;5072824;28;20024;-77
2023/08/04 05:40:28;;;;;;;4.33;1.30;;;;;;;19.83;100.00;95714.97;5074965;28;20066;-78
2023/08/04 05:46:46;;;;;;;3.17;0.90;;;;;;;20.48;100.00;95714.84;5062167;28;20525;-77
2023/08/04 05:49:13;;;;;;;4.20;1.20;;;;;;;20.43;100.00;95706.75;5058472;28;20402;-78
2023/08/04 05:51:38;;;;;;;3.47;1.13;;;;;;;20.57;100.00;95717.22;5061669;28;20025;-78
2023/08/04 05:54:04;;;;;;;3.43;0.70;;;;;;;20.79;100.00;95725.41;5074442;28;20531;-79
2023/08/04 05:56:29;;;;;;;4.43;1.00;;;;;;;20.94;100.00;95723.06;5057651;28;20024;-78
2023/08/04 05:58:55;;;;;;;4.20;1.17;;;;;;;21.30;100.00;95715.72;5057614;28;20036;-78
2023/08/04 06:01:26;;;;;;;2.63;1.05;;;;;;;21.37;100.00;95719.91;5056384;28;20017;-78
2023/08/04 06:03:57;;;;;;;4.95;1.65;;;;;;;21.96;100.00;95724.91;5056556;28;20100;-79
2023/08/04 06:06:23;;;;;;;2.67;0.93;;;;;;;22.25;100.00;95725.66;5055715;28;20480;-78
2023/08/04 06:08:49;;;;;;;2.50;1.00;;;;;;;22.74;100.00;95715.09;5072321;28;20870;-78
2023/08/04 06:11:14;;;;;;;4.05;1.17;;;;;;;22.80;100.00;95719.47;5069862;28;20017;-79
2023/08/04 06:13:40;;;;;;;2.70;0.95;;;;;;;22.76;100.00;95723.69;5052022;28;20719;-78
2023/08/04 06:16:06;;;;;;;3.80;1.20;;;;;;;22.83;100.00;95727.00;5067321;28;20091;-78
2023/08/04 06:18:31;;;;;;;3.10;1.00;;;;;;;22.83;100.00;95718.16;5059386;28;20475;-78
2023/08/04 06:20:57;;;;;;;4.30;1.23;;;;;;;22.89;100.00;95721.72;5069308;28;20039;-78
2023/08/04 06:23:28;;;;;;;2.58;1.10;;;;;;;22.76;100.00;95720.22;5053574;28;20162;-78
2023/08/04 06:25:53;;;;;;;2.35;0.90;;;;;;;23.16;100.00;95717.25;5071248;28;20024;-78
2023/08/04 06:28:19;;;;;;;3.60;1.10;;;;;;;23.40;100.00;95722.31;5053391;28;20035;-78
2023/08/04 06:30:47;;;;;;;10.52;2.00;;;;;;;23.70;100.00;95721.84;5068536;28;20687;-80
2023/08/04 06:33:12;;;;;;;3.60;1.15;;;;;;;23.29;100.00;95722.22;5055868;28;20053;-78
2023/08/04 06:35:41;;;;;;;6.10;1.33;;;;;;;24.19;100.00;95714.47;5074034;28;20051;-78
2023/08/04 06:38:12;;;;;;;7.45;2.25;;;;;;;24.67;100.00;95711.81;5072300;28;20027;-79
2023/08/04 06:40:40;;;;;;;4.00;1.17;;;;;;;24.27;100.00;95715.84;5055948;28;20027;-78
2023/08/04 06:43:07;;;;;;;5.07;1.48;;;;;;;24.17;100.00;95721.97;5065771;28;20655;-79
2023/08/04 06:45:32;;;;;;;4.68;0.93;;;;;;;24.87;100.00;95721.88;5047428;28;20028;-78
2023/08/04 06:48:03;;;;;;;2.15;0.70;;;;;;;24.88;100.00;95718.94;5069674;28;20024;-78
2023/08/04 06:50:29;;;;;;;3.97;0.77;;;;;;;25.67;97.70;95716.22;5066667;28;20016;-78
2023/08/04 06:52:54;;;;;;;2.63;0.65;;;;;;;25.81;87.74;95723.53;5072176;28;20135;-78
2023/08/04 06:55:21;;;;;;;4.43;1.20;;;;;;;25.61;91.86;95721.59;5072307;28;20486;-79
2023/08/04 06:57:46;;;;;;;4.63;0.98;;;;;;;25.68;94.49;95724.03;5072216;28;20020;-79
2023/08/04 07:00:12;;;;;;;2.28;0.68;;;;;;;25.47;91.64;95720.50;5054251;28;20020;-79
2023/08/04 07:02:38;;;;;;;2.63;0.80;;;;;;;26.15;84.52;95719.50;5049400;28;20043;-79
2023/08/04 07:05:04;;;;;;;3.42;0.95;;;;;;;27.35;81.71;95723.28;5053085;28;20021;-78
2023/08/04 07:07:29;;;;;;;2.10;0.70;;;;;;;27.60;78.77;95716.91;5056108;28;20478;-79
2023/08/04 07:09:55;;;;;;;2.53;0.90;;;;;;;27.89;72.04;95720.53;5075714;28;20024;-78
2023/08/04 07:12:20;;;;;;;1.67;0.90;;;;;;;29.06;74.17;95712.44;5073435;28;20078;-80
2023/08/04 07:14:46;;;;;;;3.40;1.33;;;;;;;29.42;75.13;95720.91;5066355;28;20023;-80
2023/08/04 07:17:11;;;;;;;3.08;1.08;;;;;;;29.87;75.11;95720.56;5064389;28;20028;-80
2023/08/04 07:19:38;;;;;;;3.53;0.80;;;;;;;29.28;71.70;95726.25;5068265;28;20027;-81
2023/08/04 07:22:04;;;;;;;0.95;0.50;;;;;;;29.05;67.83;95727.06;5019080;28;1197871;-80
2023/08/04 07:24:30;;;;;;;1.55;0.60;;;;;;;29.30;65.29;95724.03;5073163;28;20032;-80
2023/08/04 07:27:05;;;;;;;1.95;0.80;;;;;;;28.97;63.39;95741.19;5072952;28;20036;-80
2023/08/04 07:29:33;;;;;;;1.98;0.50;;;;;;;29.99;58.63;95745.31;5052457;28;20029;-80
2023/08/04 07:31:58;;;;;;;1.80;0.50;;;;;;;29.60;58.22;95751.84;5062956;28;20016;-80
2023/08/04 07:34:32;;;;;;;1.88;0.50;;;;;;;29.78;56.55;95745.63;5046969;28;20463;-80
2023/08/04 07:36:58;;;;;;;2.03;0.80;;;;;;;30.20;54.21;95743.91;5066862;28;20029;-80
2023/08/04 07:39:23;;;;;;;1.63;0.65;;;;;;;31.05;52.48;95741.88;5072513;28;20020;-80
2023/08/04 07:41:49;;;;;;;1.60;0.55;;;;;;;30.94;51.66;95732.34;5064195;28;20012;-80
2023/08/04 07:44:14;;;;;;;0.80;0.50;;;;;;;30.00;52.58;95738.78;5054695;28;20093;-80
2023/08/04 07:46:45;;;;;;;3.35;1.60;;;;;;;31.40;51.32;95731.44;5073899;28;20016;-81
2023/08/04 07:49:11;;;;;;;4.30;1.35;;;;;;;31.12;52.58;95725.19;5053978;28;20629;-84
2023/08/04 07:51:59;;;;;;;2.00;0.80;;;;;;;30.39;54.17;95729.53;5054338;28;20020;-81
2023/08/04 07:54:24;;;;;;;6.03;0.60;;;;;;;30.73;51.88;95727.25;5056035;28;20016;-81
2023/08/04 07:56:50;;;;;;;2.50;0.70;;;;;;;30.90;52.67;95729.41;5055968;28;20386;-81
2023/08/04 07:59:17;;;;;;;1.90;0.57;;;;;;;31.23;50.19;95721.97;5072360;28;20427;-81
2023/08/04 08:01:42;;;;;;;2.13;0.52;;;;;;;31.23;50.42;95735.53;5073324;28;20099;-81
2023/08/04 08:04:12;;;;;;;2.95;0.77;;;;;;;31.26;51.39;95722.47;5059572;28;20044;-81
2023/08/04 08:06:51;;;;;;;1.45;0.70;;;;;;;32.64;49.14;95733.72;5055162;28;20021;-81
2023/08/04 08:09:23;;;;;;;2.88;0.70;;;;;;;32.40;48.36;95729.41;5054346;28;20028;-82
2023/08/04 08:11:50;;;;;;;4.78;0.93;;;;;;;32.27;46.74;95740.34;5072844;28;20044;-81
2023/08/04 08:14:16;;;;;;;2.22;0.65;;;;;;;30.93;49.47;95741.59;5048826;28;20493;-81
2023/08/04 08:17:02;;;;;;;3.30;0.70;;;;;;;31.62;48.59;95739.66;5072346;28;20029;-81
2023/08/04 08:19:27;;;;;;;1.48;0.50;;;;;;;32.60;46.24;95738.19;5072669;28;20019;-81
2023/08/04 08:21:53;;;;;;;3.40;0.95;;;;;;;32.79;48.00;95724.31;5055874;28;20440;-81
2023/08/04 08:24:19;;;;;;;4.03;0.80;;;;;;;32.58;43.08;95730.31;5071385;28;20470;-81
2023/08/04 08:26:54;;;;;;;3.70;0.85;;;;;;;32.76;43.79;95719.50;5074766;28;20020;-82
2023/08/04 08:29:19;;;;;;;2.25;0.80;;;;;;;31.28;45.81;95717.53;5067051;28;20036;-81
2023/08/04 08:31:45;;;;;;;1.67;0.50;;;;;;;31.57;42.63;95728.09;5050747;28;20020;-81
2023/08/04 08:34:10;;;;;;;1.98;0.80;;;;;;;31.29;44.86;95721.84;5055300;28;20091;-81
2023/08/04 08:36:36;;;;;;;1.17;0.60;;;;;;;31.81;45.32;95719.66;5050529;28;20531;-81
2023/08/04 08:39:02;;;;;;;1.63;0.65;;;;;;;32.85;42.20;95717.63;5052266;28;20513;-81
2023/08/04 08:41:27;;;;;;;2.53;0.90;;;;;;;32.93;43.23;95719.59;5072903;28;20390;-79
2023/08/04 08:43:53;;;;;;;3.90;0.93;;;;;;;32.36;43.30;95712.09;5051972;28;20024;-79
2023/08/04 08:46:39;;;;;;;3.63;0.70;;;;;;;32.48;43.48;95708.81;5061110;28;20028;-79
2023/08/04 08:49:05;;;;;;;4.38;1.67;;;;;;;33.28;42.71;95717.00;5052686;28;20078;-80
2023/08/04 08:51:34;;;;;;;3.55;0.88;;;;;;;31.99;41.48;95723.34;5065470;28;20028;-79
2023/08/04 08:54:07;;;;;;;3.00;0.80;;;;;;;32.29;42.59;95728.03;5045861;28;20475;-80
2023/08/04 08:56:34;;;;;;;1.13;0.52;;;;;;;32.65;41.60;95726.34;5054853;28;20020;-79
2023/08/04 08:59:07;;;;;;;1.13;0.63;;;;;;;32.42;41.15;95731.81;5054688;28;20431;-80
2023/08/04 09:01:45;;;;;;;2.08;0.80;;;;;;;32.49;42.38;95726.75;5069622;28;20426;-79
2023/08/04 09:04:27;;;;;;;6.72;1.13;;;;;;;32.77;41.22;95723.84;5068272;28;20036;-79
2023/08/04 09:06:56;;;;;;;1.37;0.60;;;;;;;32.34;41.11;95732.56;5055565;28;20029;-79
2023/08/04 09:09:22;;;;;;;2.33;0.90;;;;;;;32.60;41.06;95721.84;5072028;28;20031;-80
2023/08/04 09:11:51;;;;;;;3.90;0.85;;;;;;;32.42;41.86;95722.81;5040967;28;20021;-80
2023/08/04 09:14:17;;;;;;;3.00;0.70;;;;;;;32.53;42.04;95721.47;5041185;28;20028;-80
2023/08/04 09:16:43;;;;;;;1.02;0.50;;;;;;;32.71;40.37;95722.38;5040051;28;20025;-80
2023/08/04 09:19:09;;;;;;;2.42;0.80;;;;;;;32.99;40.91;95725.72;5064287;28;20021;-80
2023/08/04 09:21:44;;;;;;;1.58;0.50;;;;;;;33.42;40.71;95717.66;5060656;28;20053;-80
2023/08/04 09:24:13;;;;;;;0.95;0.45;;;;;;;32.75;38.64;95720.63;5069864;28;20033;-79
2023/08/04 09:26:44;;;;;;;2.20;0.52;;;;;;;32.80;40.42;95715.06;5069756;28;20059;-80
2023/08/04 09:29:11;;;;;;;0.98;0.55;;;;;;;32.36;39.97;95720.25;5052681;28;20033;-79
2023/08/04 09:31:54;;;;;;;1.50;0.63;;;;;;;33.42;37.50;95712.22;5058855;28;20122;-80
2023/08/04 09:34:19;;;;;;;;;;;;;;;33.21;38.19;95705.78;5063126;28;20085;-78
2023/08/04 09:36:47;;;;;;;2.20;0.70;;;;;;;33.70;41.29;95712.78;5058902;28;19921;-78
2023/08/04 09:39:28;;;;;;;3.70;1.05;;;;;;;34.59;39.16;95710.47;5047938;28;20021;-78
2023/08/04 09:41:53;;;;;;;1.48;0.70;;;;;;;34.83;38.30;95709.91;5070916;28;20091;-78
2023/08/04 09:44:19;;;;;;;2.05;0.82;;;;;;;33.96;40.55;95701.84;5064439;28;20024;-78
2023/08/04 09:46:50;;;;;;;1.42;0.60;;;;;;;33.38;41.43;95713.19;5043075;28;20481;-78
2023/08/04 09:49:15;;;;;;;1.20;0.40;;;;;;;33.30;40.76;95696.50;5049783;28;20517;-78
2023/08/04 09:51:41;;;;;;;4.43;0.60;;;;;;;33.50;39.12;95706.03;5064935;28;20033;-80
2023/08/04 09:54:08;;;;;;;2.13;0.70;;;;;;;33.13;40.72;95706.53;5047736;28;20066;-80
2023/08/04 09:56:34;;;;;;;2.17;0.88;;;;;;;33.23;40.60;95700.78;5063500;28;20716;-79
2023/08/04 09:59:00;;;;;;;1.50;0.68;;;;;;;33.50;40.51;95695.13;5063428;28;20024;-79
2023/08/04 10:01:25;;;;;;;0.90;0.60;;;;;;;34.26;40.95;95699.28;5051935;28;20025;-80
2023/08/04 10:03:57;;;;;;;1.70;0.68;;;;;;;33.11;40.86;95700.63;5069249;28;20025;-79
2023/08/04 10:06:26;;;;;;;1.02;0.50;;;;;;;33.06;40.90;95701.53;5073697;28;20403;-79
2023/08/04 10:09:03;;;;;;;1.65;0.65;;;;;;;31.06;41.32;95697.34;5052166;28;20024;-79
2023/08/04 10:11:59;;;;;;;1.52;0.60;;;;;;;33.22;39.34;95693.75;5054181;28;20020;-79
2023/08/04 10:14:26;;;;;;;3.72;0.95;;;;;;;33.27;40.35;95679.97;5069568;28;20505;-79
2023/08/04 10:16:59;;;;;;;1.70;0.50;;;;;;;35.12;39.19;95681.03;5052131;28;20056;-80
2023/08/04 10:19:27;;;;;;;;;;;;;;;32.77;42.05;95693.91;5054059;28;20021;-79
2023/08/04 10:22:27;;;;;;;1.65;0.80;;;;;;;33.09;40.84;95695.47;5054808;28;20310;-80
2023/08/04 10:24:53;;;;;;;1.58;0.70;;;;;;;35.47;37.05;95691.75;5070096;28;20389;-80
2023/08/04 10:27:48;;;;;;;3.17;0.70;;;;;;;34.48;37.86;95692.81;5047608;28;20037;-79
2023/08/04 10:30:14;;;;;;;0.98;0.55;;;;;;;33.29;39.67;95691.34;5046243;28;20612;-80
2023/08/04 10:32:43;;;;;;;3.70;1.23;;;;;;;32.36;41.71;95706.66;5056962;28;20024;-79
2023/08/04 10:35:22;;;;;;;3.75;0.60;;;;;;;33.04;39.98;95709.25;5070473;28;20028;-81
2023/08/04 10:37:55;;;;;;;1.92;0.80;;;;;;;34.54;38.17;95704.38;5074676;28;20095;-80
2023/08/04 10:40:30;;;;;;;;;;;;;;;35.18;37.73;95707.84;5057315;28;20116;-79
2023/08/04 10:43:20;;;;;;;1.70;0.98;;;;;;;35.40;37.50;95717.66;5059826;28;19908;-78
2023/08/04 10:45:55;;;;;;;3.25;0.93;;;;;;;35.60;36.64;95710.66;5067785;28;20025;-78
2023/08/04 10:48:22;;;;;;;1.73;0.55;;;;;;;34.15;40.24;95719.84;5056966;28;20036;-78
2023/08/04 10:50:50;;;;;;;4.03;0.80;;;;;;;32.72;39.31;95732.94;5071772;28;20032;-78
2023/08/04 10:53:17;;;;;;;1.98;0.70;;;;;;;32.86;39.14;95713.78;5067163;28;20164;-78
2023/08/04 10:55:57;;;;;;;2.83;0.70;;;;;;;34.31;38.57;95712.75;5073432;28;20032;-78
2023/08/04 10:58:23;;;;;;;2.83;0.73;;;;;;;34.28;38.75;95701.69;5072204;28;20039;-78
2023/08/04 11:00:49;;;;;;;2.97;0.70;;;;;;;32.41;39.76;95700.25;5071194;28;20021;-78
2023/08/04 11:03:22;;;;;;;2.10;0.93;;;;;;;33.60;39.58;95698.63;5056447;28;20021;-78
2023/08/04 11:05:52;;;;;;;2.72;0.98;;;;;;;33.53;39.13;95699.91;5050353;28;20024;-79
2023/08/04 11:08:28;;;;;;;2.20;0.73;;;;;;;35.08;37.69;95708.22;5055835;28;20094;-78
2023/08/04 11:10:55;;;;;;;3.65;0.80;;;;;;;34.31;38.21;95715.50;5063999;28;20483;-78
2023/08/04 11:13:22;;;;;;;1.20;0.73;;;;;;;33.80;39.77;95719.81;5066320;28;20107;-81
2023/08/04 11:15:49;;;;;;;2.72;0.80;;;;;;;33.67;39.57;95726.22;5062828;28;20025;-78
2023/08/04 11:18:24;;;;;;;2.40;0.85;;;;;;;33.64;39.84;95727.69;5072360;28;20103;-78
2023/08/04 11:20:50;;;;;;;2.72;1.15;;;;;;;32.91;39.60;95730.00;5058688;28;20040;-78
2023/08/04 11:23:34;;;;;;;2.22;0.70;;;;;;;32.16;40.23;95745.25;5044345;28;20479;-78
2023/08/04 11:26:00;;;;;;;2.80;1.30;;;;;;;31.93;43.46;95741.72;5053858;28;20048;-78
2023/08/04 11:28:26;;;;;;;2.15;0.80;;;;;;;31.50;42.51;95755.69;5057535;28;20486;-78
2023/08/04 11:31:02;;;;;;;10.07;4.55;;;;;;;31.82;43.30;95751.16;5051876;28;20020;-78
2023/08/04 11:34:07;;;;;;;5.28;3.10;;;;;;;31.36;42.83;95754.91;5065957;28;21153;-78
2023/08/04 11:36:39;;;;;;;1.75;0.60;;;;;;;31.74;41.24;95743.75;5049603;28;20501;-78
2023/08/04 11:39:04;;;;;;;1.13;0.47;;;;;;;31.51;42.36;95743.69;5071061;28;20054;-78
2023/08/04 11:41:44;;;;;;;0.60;0.45;;;;;;;31.27;41.64;95745.81;5067179;28;20044;-78